Airfield :
LOGIN :

Register | Disclaimer

   EN    FR    IT 

 










Legend :    VFR   Marginal VFR   IFR   Intensive IFR   Very Intensive IFR
Visi :
Ceiling :
>= 8 km
>= 3000ft
5 to 8 km
1000 to 3000 ft
1500m to 5 km
500 to 1000 ft
800 to 1500m
200 to 500 ft
< 800m
< 200 ft
Symbols :   Thunderstorms  Fog  Heavy snow  Heavy precipitations  Wind > 20 kt
SIGMETs :     Misc.  Thunderstorms  Icing  Turbulence  Mountain Waves  Volcanic Ashes







- Airport Elevation : 158 ft
- IATA code : QAR


EHDL - Deelen Airbase

CURRENT METAR :
  • 101955Z AUTO 28006KT 260V360 9999 NCD 03/02 Q1022 BLU

EXPIRED METARs :
  • 101925Z AUTO 28005KT 250V360 9999 NCD 03/02 Q1022 BLU
  • 101855Z AUTO 30009KT 260V360 9999 FEW009 FEW015CB BKN031 BKN054 04/03 Q1022 RERA BLU
  • 101825Z AUTO 26005KT 240V330 9999 FEW015CB SCT035 BKN039 04/02 Q1022 BLU
  • 101755Z AUTO 27007KT 220V350 9999 NCD 04/02 Q1022 BLU
  • 101725Z AUTO 28007KT 250V340 9999 NCD 03/02 Q1022 BLU

Expired Forecast.
No reported NOTAMs for that airfield.



MET'MAP, your aeronautical weather chart ! - Copyright ORBIFLY December 2007 - Disclaimer

ORBIFLY MET'MAP TEAM :

Programming & Development : Alexandra Zaïnal
Concept & Development : Baudouin d'Aumeries
Co-Development & Prog : Marc-Olivier Méhu
Technical & hardware support : Manuel Goepfert

Contact : metmap@orbifly.com




SOURCES & CREDITS :

   NOAA